Time;durP1;ratioP1;P1;durP2;ratioP2;P2;SDS_P1;SDS_P2;PMS_P1;PMS_P2;Temp;Humidity;BMP_temperature;BMP_pressure;BME280_temperature;BME280_humidity;BME280_pressure;Samples;Min_cycle;Max_cycle;Signal;HPM_P1;HPM_P2
2022/09/04 11:30:35;;;;;;;1.30;1.00;;;;;;;27.40;44.97;101333.46;647642;1306;1587910;-84
2022/09/04 11:46:06;;;;;;;2.30;0.90;;;;;;;27.78;45.11;101326.02;655267;1288;139385;-89
2022/09/04 12:01:38;;;;;;;1.70;1.00;;;;;;;27.99;43.90;101319.81;654572;1289;138204;-88
2022/09/04 12:16:47;;;;;;;1.90;1.00;;;;;;;28.17;43.43;101308.38;654491;1289;138477;-85
2022/09/04 12:32:31;;;;;;;2.60;1.10;;;;;;;28.18;43.21;101312.52;648976;1289;137810;-86
2022/09/04 12:47:59;;;;;;;2.30;1.50;;;;;;;28.64;43.69;101308.84;650176;1290;137985;-86
2022/09/04 13:03:28;;;;;;;1.90;0.80;;;;;;;26.81;43.98;101310.98;650722;1289;138702;-86
2022/09/04 13:19:00;;;;;;;1.90;0.90;;;;;;;28.30;43.21;101315.58;651375;1289;139283;-86
2022/09/04 13:34:36;;;;;;;1.20;0.70;;;;;;;29.05;41.76;101323.48;654268;1289;139558;-86
2022/09/04 13:49:55;;;;;;;6.20;1.30;;;;;;;29.79;40.84;101327.30;653265;1290;140018;-86
2022/09/04 14:05:12;;;;;;;2.00;0.80;;;;;;;30.66;39.55;101321.66;654519;1289;138985;-85
2022/09/04 14:20:34;;;;;;;1.00;0.70;;;;;;;36.90;35.39;101312.91;651347;1289;140429;-82
2022/09/04 14:35:53;;;;;;;1.10;0.70;;;;;;;41.49;30.93;101307.67;653682;1289;139929;-81
2022/09/04 14:51:13;;;;;;;2.40;0.90;;;;;;;42.81;30.36;101314.23;650410;1289;138124;-82
2022/09/04 15:06:28;;;;;;;2.10;1.40;;;;;;;44.55;29.58;101313.02;650016;1289;139124;-83
2022/09/04 15:21:46;;;;;;;2.00;0.90;;;;;;;38.06;30.57;101311.77;650186;1289;140368;-83
2022/09/04 15:36:50;;;;;;;1.20;0.80;;;;;;;34.05;33.20;101309.74;650383;1289;139149;-82
2022/09/04 15:52:22;;;;;;;2.00;1.00;;;;;;;32.97;33.46;101305.67;650365;1289;139863;-80
2022/09/04 16:07:49;;;;;;;1.30;0.70;;;;;;;33.84;34.15;101310.01;653968;1289;138515;-81
2022/09/04 16:23:02;;;;;;;4.50;2.00;;;;;;;29.12;35.80;101314.67;654056;1287;139849;-81
2022/09/04 16:38:25;;;;;;;3.90;2.40;;;;;;;26.42;38.70;101318.52;652572;1289;138117;-81
2022/09/04 16:53:40;;;;;;;14.10;6.10;;;;;;;25.45;40.62;101329.27;651166;1289;138788;-81
2022/09/04 17:08:57;;;;;;;5.50;2.80;;;;;;;24.26;42.16;101338.79;650579;1289;138191;-80
2022/09/04 17:24:06;;;;;;;11.20;8.50;;;;;;;22.92;43.18;101342.52;651729;1289;138199;-81
2022/09/04 17:39:41;;;;;;;6.00;2.80;;;;;;;21.82;44.20;101363.77;650166;1289;139639;-82
2022/09/04 17:55:10;;;;;;;9.00;4.50;;;;;;;20.72;45.97;101395.71;651681;1289;139110;-80
2022/09/04 18:10:34;;;;;;;18.60;7.90;;;;;;;19.99;47.63;101411.98;652237;1288;137932;-80
2022/09/04 18:25:49;;;;;;;17.00;9.30;;;;;;;19.25;48.80;101429.59;652394;1289;140196;-82
2022/09/04 18:40:58;;;;;;;5.20;2.40;;;;;;;18.72;49.55;101451.86;652144;1289;139659;-81
2022/09/04 18:56:43;;;;;;;6.50;3.10;;;;;;;18.29;50.87;101470.20;651788;1289;139090;-82
2022/09/04 19:11:54;;;;;;;5.20;2.80;;;;;;;17.84;51.49;101476.28;652435;1288;138429;-82
2022/09/04 19:27:25;;;;;;;37.70;15.10;;;;;;;17.43;52.39;101486.86;654037;1289;139783;-82
2022/09/04 19:42:39;;;;;;;9.30;4.10;;;;;;;16.94;53.96;101494.39;658631;1289;139126;-81
2022/09/04 19:58:14;;;;;;;19.20;8.20;;;;;;;16.38;55.48;101512.24;665525;1277;138427;-80
2022/09/04 20:13:46;;;;;;;9.60;4.70;;;;;;;15.79;57.06;101521.61;657930;1277;140084;-80
2022/09/04 20:29:15;;;;;;;11.20;4.20;;;;;;;15.38;58.11;101530.70;657812;1278;138275;-80
2022/09/04 20:44:40;;;;;;;20.50;8.70;;;;;;;14.99;59.40;101538.55;656132;1278;138485;-80
2022/09/04 21:00:06;;;;;;;58.60;20.00;;;;;;;14.53;60.88;101548.91;655799;1277;139600;-81
2022/09/04 21:15:47;;;;;;;65.40;23.90;;;;;;;14.12;62.20;101573.10;655971;1277;139813;-81
2022/09/04 21:30:57;;;;;;;13.40;6.60;;;;;;;13.73;63.31;101587.33;657326;1277;139369;-82
2022/09/04 21:46:20;;;;;;;21.40;8.20;;;;;;;13.58;64.55;101592.09;657765;1277;139063;-82
2022/09/04 22:01:44;;;;;;;9.70;5.70;;;;;;;13.24;65.28;101602.48;656806;1279;139117;-81
2022/09/04 22:17:40;;;;;;;7.50;3.50;;;;;;;12.99;66.35;101606.15;656874;1277;141669;-81
2022/09/04 22:33:05;;;;;;;4.30;2.40;;;;;;;12.50;66.62;101608.84;657267;1277;139824;-82
2022/09/04 22:48:33;;;;;;;4.60;2.40;;;;;;;12.21;67.62;101616.39;656989;1277;138756;-82
2022/09/04 23:04:01;;;;;;;5.40;2.90;;;;;;;12.00;69.00;101624.41;657063;1277;138580;-82
2022/09/04 23:19:42;;;;;;;4.20;2.40;;;;;;;11.70;69.60;101625.83;656594;1277;139161;-81
2022/09/04 23:35:40;;;;;;;3.10;1.70;;;;;;;11.77;71.92;101627.25;655040;1277;1597640;-81
2022/09/04 23:51:19;;;;;;;4.30;1.80;;;;;;;11.66;71.97;101632.27;655127;1278;138968;-80
